Time;durP1;ratioP1;P1;durP2;ratioP2;P2;SDS_P1;SDS_P2;PMS_P1;PMS_P2;Temp;Humidity;BMP_temperature;BMP_pressure;BME280_temperature;BME280_humidity;BME280_pressure;Samples;Min_cycle;Max_cycle;Signal;HPM_P1;HPM_P2
2023/09/07 00:01:33;;;;;;;29.95;13.23;;;;;;;18.74;99.94;101988.38;6063378;19;20072;-72
2023/09/07 00:03:40;;;;;;;32.45;13.82;;;;;;;18.73;100.00;101984.00;6044993;19;20605;-70
2023/09/07 00:05:48;;;;;;;33.83;16.38;;;;;;;18.70;100.00;101979.72;6067803;19;20398;-71
2023/09/07 00:07:55;;;;;;;33.92;14.35;;;;;;;18.68;100.00;101984.25;6068756;19;20506;-70
2023/09/07 00:10:01;;;;;;;29.25;13.93;;;;;;;18.65;100.00;101982.63;6067654;19;20379;-71
2023/09/07 00:12:08;;;;;;;28.85;13.07;;;;;;;18.64;100.00;101985.34;6044342;19;20459;-72
2023/09/07 00:14:15;;;;;;;32.90;14.95;;;;;;;18.62;100.00;101980.13;6068512;19;20026;-71
2023/09/07 00:16:26;;;;;;;29.55;15.27;;;;;;;18.59;100.00;101977.66;6070896;19;20387;-71
2023/09/07 00:18:32;;;;;;;27.20;13.02;;;;;;;18.56;100.00;101979.59;6068961;19;20380;-73
2023/09/07 00:20:39;;;;;;;28.98;14.10;;;;;;;18.56;100.00;101982.28;6057403;19;20011;-72
2023/09/07 00:22:45;;;;;;;33.25;14.75;;;;;;;18.51;100.00;101981.66;6068754;19;20051;-71
2023/09/07 00:24:50;;;;;;;29.80;13.05;;;;;;;18.46;100.00;101981.94;6069312;19;20302;-70
2023/09/07 00:26:57;;;;;;;29.70;13.95;;;;;;;18.45;100.00;101977.53;6072094;19;20011;-71
2023/09/07 00:29:02;;;;;;;28.88;14.52;;;;;;;18.42;100.00;101975.91;6068251;19;20035;-73
2023/09/07 00:31:07;;;;;;;23.63;12.73;;;;;;;18.39;100.00;101975.22;6068936;19;20155;-72
2023/09/07 00:33:15;;;;;;;32.13;14.57;;;;;;;18.36;100.00;101978.06;6069758;19;20509;-72
2023/09/07 00:35:21;;;;;;;26.30;12.02;;;;;;;18.31;100.00;101983.63;6073849;19;20518;-70
2023/09/07 00:37:29;;;;;;;26.73;12.55;;;;;;;18.30;100.00;101981.94;6079145;19;20049;-71
2023/09/07 00:39:34;;;;;;;30.15;12.98;;;;;;;18.28;100.00;101978.50;6068334;19;20039;-71
2023/09/07 00:41:39;;;;;;;25.40;13.63;;;;;;;18.29;100.00;101976.69;6070001;19;20434;-71
2023/09/07 00:43:47;;;;;;;25.75;13.00;;;;;;;18.28;100.00;101975.84;6073976;19;20088;-71
2023/09/07 00:45:53;;;;;;;25.08;11.95;;;;;;;18.28;100.00;101970.50;6073301;19;20010;-71
2023/09/07 00:48:02;;;;;;;26.75;12.88;;;;;;;18.24;100.00;101976.94;6076982;19;20591;-71
2023/09/07 00:50:13;;;;;;;28.50;13.13;;;;;;;18.24;100.00;101976.94;6071411;19;20050;-71
2023/09/07 00:52:22;;;;;;;29.52;14.27;;;;;;;18.22;100.00;101976.19;6071310;19;20025;-71
2023/09/07 00:54:26;;;;;;;22.33;11.55;;;;;;;18.19;100.00;101968.34;6068909;19;20091;-71
2023/09/07 00:56:34;;;;;;;25.40;12.65;;;;;;;18.22;100.00;101968.19;6076862;19;20337;-72
2023/09/07 00:58:40;;;;;;;24.38;12.68;;;;;;;18.21;100.00;101969.13;6074507;19;20181;-72
2023/09/07 01:00:45;;;;;;;24.70;12.13;;;;;;;18.17;100.00;101967.59;6067407;19;20519;-72
2023/09/07 01:02:48;;;;;;;19.67;10.10;;;;;;;18.15;100.00;101966.81;6072445;19;20014;-73
2023/09/07 01:04:54;;;;;;;23.48;10.80;;;;;;;18.13;100.00;101960.69;6072677;19;20047;-72
2023/09/07 01:07:10;;;;;;;23.38;11.27;;;;;;;18.09;100.00;101959.13;6068621;19;20014;-71
2023/09/07 01:09:19;;;;;;;19.55;10.00;;;;;;;18.05;100.00;101955.78;6066935;19;20024;-70
2023/09/07 01:11:24;;;;;;;23.77;11.73;;;;;;;18.02;100.00;101955.09;6059988;19;20014;-73
2023/09/07 01:13:29;;;;;;;23.25;12.32;;;;;;;17.97;100.00;101953.53;6072595;19;20248;-72
2023/09/07 01:15:35;;;;;;;19.88;10.73;;;;;;;17.92;100.00;101952.94;6074601;19;20020;-71
2023/09/07 01:17:43;;;;;;;23.42;11.23;;;;;;;17.90;100.00;101946.81;6071073;19;20466;-73
2023/09/07 01:19:49;;;;;;;21.70;10.32;;;;;;;17.89;100.00;101947.78;6067939;19;20029;-72
2023/09/07 01:21:58;;;;;;;19.05;10.98;;;;;;;17.87;100.00;101946.16;6066812;19;20260;-72
2023/09/07 01:24:08;;;;;;;20.90;10.63;;;;;;;17.84;100.00;101955.13;6065267;19;20034;-70
2023/09/07 01:26:14;;;;;;;22.35;11.45;;;;;;;17.82;100.00;101953.50;6066848;19;20081;-71
2023/09/07 01:28:21;;;;;;;23.63;12.05;;;;;;;17.78;100.00;101950.13;6065908;19;20450;-71
2023/09/07 01:30:32;;;;;;;20.67;11.25;;;;;;;17.72;100.00;101953.97;6064555;19;20086;-71
2023/09/07 01:32:40;;;;;;;19.02;11.23;;;;;;;17.70;100.00;101949.69;6063500;19;20109;-71
2023/09/07 01:34:47;;;;;;;16.80;10.68;;;;;;;17.65;100.00;101954.38;6064315;19;20046;-71
2023/09/07 01:36:55;;;;;;;19.77;10.10;;;;;;;17.59;100.00;101944.94;6061559;19;20074;-71
2023/09/07 01:39:03;;;;;;;19.33;10.45;;;;;;;17.59;100.00;101949.34;6066218;19;20011;-71
2023/09/07 01:41:08;;;;;;;19.70;10.75;;;;;;;17.52;100.00;101948.84;6058149;19;21580;-71
2023/09/07 01:43:14;;;;;;;17.98;10.30;;;;;;;17.53;100.00;101954.06;6061999;19;20011;-72
2023/09/07 01:45:19;;;;;;;17.58;9.98;;;;;;;17.50;100.00;101951.56;6057788;19;20514;-70
2023/09/07 01:47:24;;;;;;;18.85;9.85;;;;;;;17.51;100.00;101949.78;6073938;19;20413;-71
2023/09/07 01:49:31;;;;;;;17.88;10.48;;;;;;;17.49;100.00;101952.50;6064208;19;20015;-71
2023/09/07 01:51:36;;;;;;;17.08;9.77;;;;;;;17.44;100.00;101951.88;6068020;19;20007;-72
2023/09/07 01:53:42;;;;;;;18.75;10.20;;;;;;;17.38;100.00;101948.69;6063050;19;20011;-70
2023/09/07 01:55:50;;;;;;;16.88;9.38;;;;;;;17.35;100.00;101955.00;6064924;19;20059;-73
2023/09/07 01:58:00;;;;;;;18.52;10.27;;;;;;;17.37;100.00;101955.78;6070929;19;20288;-72
2023/09/07 02:00:08;;;;;;;19.00;10.38;;;;;;;17.33;100.00;101956.91;6069107;19;20182;-72
2023/09/07 02:02:13;;;;;;;17.27;9.75;;;;;;;17.28;100.00;101953.63;6076464;19;19999;-72
2023/09/07 02:04:18;;;;;;;18.20;9.98;;;;;;;17.26;100.00;101956.34;6078461;19;20006;-71
2023/09/07 02:06:23;;;;;;;17.58;10.32;;;;;;;17.23;100.00;101960.97;6071621;19;20396;-70
2023/09/07 02:08:31;;;;;;;18.98;10.57;;;;;;;17.22;100.00;101953.91;6075950;19;20101;-72
2023/09/07 02:10:36;;;;;;;19.85;10.60;;;;;;;17.15;100.00;101961.34;6070799;19;20435;-71
2023/09/07 02:12:47;;;;;;;18.88;10.25;;;;;;;17.17;100.00;101954.16;6065735;19;20528;-71
2023/09/07 02:14:55;;;;;;;18.27;11.10;;;;;;;17.18;100.00;101960.34;6074228;19;20097;-71
2023/09/07 02:17:00;;;;;;;17.40;10.10;;;;;;;17.17;100.00;101951.50;6069670;19;20014;-71
2023/09/07 02:19:06;;;;;;;19.15;9.95;;;;;;;17.17;100.00;101955.94;6070348;19;20630;-71
2023/09/07 02:21:13;;;;;;;18.30;9.77;;;;;;;17.17;100.00;101955.94;6061724;19;20242;-71
2023/09/07 02:23:21;;;;;;;18.05;10.07;;;;;;;17.17;100.00;101955.94;6064143;19;20006;-71
2023/09/07 02:25:27;;;;;;;15.40;9.70;;;;;;;17.19;100.00;101948.75;6068281;19;20043;-71
2023/09/07 02:27:30;;;;;;;20.33;10.80;;;;;;;17.23;100.00;101945.03;6065904;19;20014;-71
2023/09/07 02:29:37;;;;;;;;;;;;;;;17.27;100.00;101951.88;6065697;19;20006;-71
2023/09/07 02:31:41;;;;;;;18.73;11.02;;;;;;;17.28;100.00;101951.81;6071551;19;19929;-71
2023/09/07 02:33:46;;;;;;;18.75;10.63;;;;;;;17.31;100.00;101948.16;6065244;19;20010;-72
2023/09/07 02:35:54;;;;;;;20.73;11.70;;;;;;;17.35;100.00;101947.03;6066888;19;20038;-71
2023/09/07 02:38:00;;;;;;;20.48;11.32;;;;;;;17.34;100.00;101950.63;6068838;19;20247;-72
2023/09/07 02:40:07;;;;;;;18.98;11.65;;;;;;;17.35;100.00;101941.72;6063755;19;20018;-72
2023/09/07 02:42:12;;;;;;;19.88;11.45;;;;;;;17.40;100.00;101950.31;6065498;19;20670;-72
2023/09/07 02:44:17;;;;;;;21.50;12.40;;;;;;;17.44;100.00;101945.72;6063964;19;20440;-72
2023/09/07 02:46:27;;;;;;;16.83;11.30;;;;;;;17.44;100.00;101953.69;6072845;19;20349;-72
2023/09/07 02:48:32;;;;;;;20.35;11.85;;;;;;;17.44;100.00;101954.53;6066947;19;20035;-72
2023/09/07 02:50:35;;;;;;;19.80;11.68;;;;;;;17.40;100.00;101952.97;6065455;19;20220;-72
2023/09/07 02:52:42;;;;;;;18.85;11.35;;;;;;;17.38;100.00;101946.91;6062935;19;20072;-72
2023/09/07 02:54:47;;;;;;;21.23;12.00;;;;;;;17.33;100.00;101952.44;6071414;19;20019;-72
2023/09/07 02:56:52;;;;;;;20.08;12.10;;;;;;;17.28;100.00;101949.16;6071140;19;20014;-72
2023/09/07 02:59:01;;;;;;;19.50;11.43;;;;;;;17.29;100.00;101956.19;6062195;19;19998;-72
2023/09/07 03:01:10;;;;;;;18.15;10.02;;;;;;;17.28;100.00;101954.47;6049023;19;20032;-73
2023/09/07 03:03:18;;;;;;;18.00;11.27;;;;;;;17.27;100.00;101955.44;6072320;19;20415;-71
2023/09/07 03:05:26;;;;;;;21.00;12.40;;;;;;;17.26;100.00;101952.84;6072944;19;20010;-71
2023/09/07 03:07:36;;;;;;;18.65;11.23;;;;;;;17.25;100.00;101956.44;6074347;19;20010;-71
2023/09/07 03:09:47;;;;;;;19.42;12.10;;;;;;;17.26;100.00;101953.69;6066828;19;20042;-72
2023/09/07 03:11:50;;;;;;;22.13;12.48;;;;;;;17.26;100.00;101955.50;6070861;19;20431;-72
2023/09/07 03:13:58;;;;;;;19.42;12.27;;;;;;;17.28;100.00;101958.94;6073270;19;20387;-70
2023/09/07 03:16:02;;;;;;;19.55;11.32;;;;;;;17.23;100.00;101953.84;6066525;19;20395;-71
2023/09/07 03:18:10;;;;;;;22.45;12.65;;;;;;;17.17;100.00;101961.25;6066504;19;20006;-71
2023/09/07 03:20:17;;;;;;;20.15;11.38;;;;;;;17.13;100.00;101955.25;6070966;19;20412;-70
2023/09/07 03:22:22;;;;;;;17.52;10.85;;;;;;;17.04;100.00;101961.88;6076238;19;20006;-71
2023/09/07 03:24:28;;;;;;;16.77;10.75;;;;;;;16.98;100.00;101958.66;6066729;19;20405;-71
2023/09/07 03:26:35;;;;;;;17.48;10.43;;;;;;;16.91;100.00;101963.44;6071734;19;20275;-72
2023/09/07 03:28:40;;;;;;;19.17;11.85;;;;;;;16.84;100.00;101959.34;6070790;19;20242;-73
2023/09/07 03:30:43;;;;;;;19.63;10.82;;;;;;;16.81;100.00;101954.19;6068109;19;20578;-72
2023/09/07 03:32:49;;;;;;;17.80;11.30;;;;;;;16.81;100.00;101948.88;6071980;19;20371;-72
2023/09/07 03:34:54;;;;;;;21.27;12.43;;;;;;;16.86;100.00;101952.19;6072341;19;20438;-73
2023/09/07 03:37:03;;;;;;;20.88;11.65;;;;;;;16.87;100.00;101951.22;6066349;19;20021;-71
2023/09/07 03:39:11;;;;;;;21.50;11.00;;;;;;;16.86;100.00;101954.81;6069137;19;20338;-71
2023/09/07 03:41:14;;;;;;;20.33;12.63;;;;;;;16.83;100.00;101950.53;6072203;19;20021;-71
2023/09/07 03:43:20;;;;;;;20.90;12.40;;;;;;;16.84;100.00;101944.28;6079038;19;20123;-71
2023/09/07 03:45:25;;;;;;;21.15;12.10;;;;;;;16.82;100.00;101948.78;6077867;19;20633;-71
2023/09/07 03:47:30;;;;;;;23.13;13.27;;;;;;;16.82;100.00;101945.28;6077377;19;20028;-71
2023/09/07 03:49:36;;;;;;;19.13;11.35;;;;;;;16.76;100.00;101946.41;6079163;19;20701;-73
2023/09/07 03:51:41;;;;;;;21.52;12.55;;;;;;;16.77;100.00;101955.22;6077883;19;20657;-72
2023/09/07 03:53:49;;;;;;;16.95;11.52;;;;;;;16.71;100.00;101958.19;6074408;19;20010;-72
2023/09/07 03:55:58;;;;;;;20.90;12.57;;;;;;;16.61;100.00;101949.81;6078007;19;20009;-73
2023/09/07 03:58:03;;;;;;;19.77;12.90;;;;;;;16.56;100.00;101958.00;6076466;19;20474;-71
2023/09/07 04:00:08;;;;;;;20.02;11.55;;;;;;;16.52;100.00;101961.72;6052512;19;20011;-72
2023/09/07 04:02:13;;;;;;;20.35;12.38;;;;;;;16.47;100.00;101966.38;6079485;19;20040;-72
2023/09/07 04:04:20;;;;;;;22.23;12.48;;;;;;;16.43;100.00;101967.50;6076275;19;20002;-70
2023/09/07 04:06:26;;;;;;;21.27;12.98;;;;;;;16.38;100.00;101966.84;6080131;19;20401;-71
2023/09/07 04:08:31;;;;;;;24.05;14.65;;;;;;;16.38;100.00;101973.00;6075058;19;20273;-70
2023/09/07 04:10:43;;;;;;;19.50;11.48;;;;;;;16.30;100.00;101969.84;6077522;19;20475;-71
2023/09/07 04:12:48;;;;;;;20.58;12.35;;;;;;;16.32;100.00;101972.41;6078055;19;20507;-71
2023/09/07 04:14:54;;;;;;;19.45;11.05;;;;;;;16.29;100.00;101970.75;6074124;19;20087;-71
2023/09/07 04:17:00;;;;;;;21.35;11.15;;;;;;;16.33;100.00;101968.84;6071199;19;20043;-71
2023/09/07 04:19:09;;;;;;;18.08;11.02;;;;;;;16.32;100.00;101962.66;6075355;19;20523;-71
2023/09/07 04:21:15;;;;;;;21.80;12.75;;;;;;;16.28;100.00;101963.75;6074507;19;20013;-71
2023/09/07 04:23:21;;;;;;;21.75;13.15;;;;;;;16.26;100.00;101968.25;6070862;19;20191;-71
2023/09/07 04:25:28;;;;;;;21.00;13.32;;;;;;;16.22;100.00;101966.69;6075526;19;20038;-70
2023/09/07 04:27:39;;;;;;;23.08;13.88;;;;;;;16.22;100.00;101972.00;6073762;19;20601;-71
2023/09/07 04:29:49;;;;;;;20.38;13.20;;;;;;;16.16;100.00;101972.25;6076307;19;20446;-70
2023/09/07 04:31:55;;;;;;;22.63;12.48;;;;;;;16.15;100.00;101970.56;6076864;19;20307;-71
2023/09/07 04:34:03;;;;;;;19.25;12.85;;;;;;;16.11;100.00;101972.47;6077385;19;20048;-70
2023/09/07 04:36:15;;;;;;;24.23;15.15;;;;;;;16.10;100.00;101968.09;6076839;19;20490;-72
2023/09/07 04:38:20;;;;;;;22.77;14.45;;;;;;;16.07;100.00;101970.03;6077749;19;20227;-70
2023/09/07 04:40:29;;;;;;;21.92;12.70;;;;;;;16.08;100.00;101969.94;6081208;19;20165;-71
2023/09/07 04:42:38;;;;;;;20.13;12.45;;;;;;;16.04;100.00;101970.19;6075935;19;20269;-72
2023/09/07 04:44:45;;;;;;;20.65;12.07;;;;;;;16.00;100.00;101958.84;6075453;19;20062;-71
2023/09/07 04:46:51;;;;;;;23.58;13.60;;;;;;;16.01;100.00;101968.53;6076067;19;20285;-71
2023/09/07 04:48:59;;;;;;;20.48;12.48;;;;;;;16.00;100.00;101965.00;6080011;19;20167;-72
2023/09/07 04:51:08;;;;;;;22.38;13.15;;;;;;;16.02;100.00;101976.41;6070787;19;20185;-73
2023/09/07 04:53:17;;;;;;;25.38;12.57;;;;;;;15.97;100.00;101978.41;6075084;19;20023;-72
2023/09/07 04:55:22;;;;;;;24.60;13.43;;;;;;;16.00;100.00;101977.41;6074611;19;20554;-72
2023/09/07 04:57:30;;;;;;;25.85;14.23;;;;;;;15.95;100.00;101974.94;6075215;19;20017;-71
2023/09/07 04:59:38;;;;;;;23.00;13.30;;;;;;;15.86;100.00;101979.81;6078219;19;20010;-72
2023/09/07 05:01:43;;;;;;;23.20;13.95;;;;;;;15.85;100.00;101986.91;6078184;19;20687;-70
2023/09/07 05:03:50;;;;;;;22.67;13.73;;;;;;;15.87;100.00;101986.84;6080291;19;20130;-73
2023/09/07 05:06:00;;;;;;;21.35;13.55;;;;;;;15.79;100.00;101990.66;6081025;19;20532;-71
2023/09/07 05:08:08;;;;;;;23.50;14.27;;;;;;;15.92;100.00;101984.84;6081499;19;20009;-72
2023/09/07 05:10:19;;;;;;;27.90;15.30;;;;;;;15.87;100.00;101987.69;6076372;19;20006;-71
2023/09/07 05:12:24;;;;;;;22.40;13.38;;;;;;;15.85;100.00;101993.97;6077727;19;20200;-71
2023/09/07 05:14:32;;;;;;;20.90;12.52;;;;;;;15.87;100.00;101986.84;6077549;19;20015;-72
2023/09/07 05:17:36;;;;;;;;;;;;;;;;;;;;;
2023/09/07 05:20:37;;;;;;;21.05;12.52;;;;;;;15.94;100.00;101996.25;6051397;19;20013;-72
2023/09/07 05:23:18;;;;;;;;;;;;;;;;;;;;;
2023/09/07 05:31:39;;;;;;;21.95;12.68;;;;;;;15.93;100.00;101987.44;6030301;19;20536;-72
2023/09/07 05:33:55;;;;;;;23.67;14.30;;;;;;;15.95;100.00;101995.31;6054090;19;20572;-72
2023/09/07 05:36:06;;;;;;;23.60;14.00;;;;;;;15.94;100.00;101990.94;6074150;19;20020;-71
2023/09/07 05:38:12;;;;;;;23.08;14.63;;;;;;;15.94;100.00;101997.09;6053672;19;20022;-73
2023/09/07 05:40:15;;;;;;;24.50;13.73;;;;;;;16.01;100.00;101995.06;6076688;19;20006;-72
2023/09/07 05:42:21;;;;;;;26.58;15.63;;;;;;;16.15;100.00;101995.28;6075175;19;20452;-72
2023/09/07 05:44:37;;;;;;;24.70;12.57;;;;;;;16.29;100.00;101988.47;6075072;19;20007;-72
2023/09/07 05:46:48;;;;;;;23.23;13.63;;;;;;;16.45;100.00;101997.44;6068948;19;20045;-72
2023/09/07 05:49:05;;;;;;;24.45;14.00;;;;;;;16.59;100.00;101995.00;6074013;19;20339;-71
2023/09/07 05:51:12;;;;;;;28.58;15.38;;;;;;;16.75;100.00;102002.25;6073664;19;20039;-71
2023/09/07 05:53:14;;;;;;;23.70;15.10;;;;;;;16.88;100.00;101998.97;6075773;19;20038;-70
2023/09/07 05:55:20;;;;;;;24.83;13.93;;;;;;;17.01;100.00;101993.91;6075629;19;20014;-72
2023/09/07 05:57:29;;;;;;;27.38;15.55;;;;;;;17.11;100.00;101995.19;6077868;19;20034;-72
2023/09/07 05:59:34;;;;;;;25.98;14.10;;;;;;;17.24;100.00;101998.06;6073160;19;20017;-71
2023/09/07 06:01:44;;;;;;;22.85;14.13;;;;;;;17.41;100.00;102002.53;6075988;19;20485;-71
2023/09/07 06:03:56;;;;;;;24.77;14.70;;;;;;;17.57;100.00;101997.31;6076835;19;20010;-71
2023/09/07 06:06:06;;;;;;;27.88;15.90;;;;;;;17.73;100.00;102000.03;6076691;19;20013;-71
2023/09/07 06:08:16;;;;;;;31.02;17.50;;;;;;;17.89;100.00;102006.28;6071441;19;20035;-71
2023/09/07 06:10:22;;;;;;;32.38;16.63;;;;;;;18.07;100.00;102003.59;6074682;19;20478;-70
2023/09/07 06:12:29;;;;;;;26.13;16.55;;;;;;;18.23;100.00;102003.63;6072332;19;20014;-71
2023/09/07 06:14:35;;;;;;;25.85;16.90;;;;;;;18.42;100.00;102007.00;6070065;19;20013;-70
2023/09/07 06:16:40;;;;;;;28.50;17.90;;;;;;;18.54;100.00;102005.47;6076047;19;20352;-70
2023/09/07 06:18:46;;;;;;;27.38;16.90;;;;;;;18.66;100.00;102015.44;6071801;19;20010;-70
2023/09/07 06:24:01;;;;;;;27.17;15.70;;;;;;;18.88;100.00;102024.91;6067935;19;20030;-70
2023/09/07 06:26:07;;;;;;;27.92;17.73;;;;;;;19.02;100.00;102025.00;6073089;19;20319;-71
2023/09/07 06:28:12;;;;;;;27.10;16.42;;;;;;;19.16;100.00;102026.84;6073383;19;20901;-70
2023/09/07 06:30:19;;;;;;;28.27;16.77;;;;;;;19.30;100.00;102032.25;6066098;19;20577;-72
2023/09/07 06:32:25;;;;;;;27.50;16.15;;;;;;;19.38;99.69;102023.78;6066990;19;20036;-71
2023/09/07 06:34:30;;;;;;;24.45;15.63;;;;;;;19.52;99.05;102024.69;6072330;19;20082;-70
2023/09/07 06:36:36;;;;;;;23.88;15.75;;;;;;;19.66;98.10;102023.91;6076266;19;20633;-72
2023/09/07 06:38:52;;;;;;;26.45;15.68;;;;;;;19.77;97.45;102019.72;6075195;19;20403;-72
2023/09/07 06:41:02;;;;;;;25.50;15.77;;;;;;;19.81;95.87;102022.13;6072573;19;20425;-71
2023/09/07 06:43:20;;;;;;;26.77;15.18;;;;;;;19.82;95.67;102021.16;6041557;19;20566;-72
2023/09/07 06:45:29;;;;;;;25.02;14.15;;;;;;;19.99;94.93;102017.47;6072997;19;20015;-71
2023/09/07 06:47:34;;;;;;;22.67;14.63;;;;;;;20.04;93.88;102012.72;6068796;19;20007;-70
2023/09/07 06:49:45;;;;;;;27.00;14.75;;;;;;;20.19;92.96;102018.91;6074070;19;20426;-75
2023/09/07 06:51:51;;;;;;;21.98;14.43;;;;;;;20.27;92.67;102019.28;6077720;19;20010;-74
2023/09/07 06:54:05;;;;;;;22.88;14.43;;;;;;;20.47;92.20;102019.84;6078771;19;20074;-74
2023/09/07 06:56:13;;;;;;;23.35;13.57;;;;;;;20.61;91.23;102012.69;6078190;19;20368;-76
2023/09/07 06:58:25;;;;;;;24.95;15.27;;;;;;;20.74;90.45;102020.78;6081075;19;20085;-73
2023/09/07 07:00:31;;;;;;;21.00;13.52;;;;;;;20.95;89.93;102020.34;6075775;19;20300;-74
2023/09/07 07:02:43;;;;;;;25.45;15.38;;;;;;;20.96;88.01;102019.41;6075680;19;20503;-73
2023/09/07 07:04:51;;;;;;;24.17;14.23;;;;;;;21.05;87.79;102022.31;6079393;19;20516;-74
2023/09/07 07:07:00;;;;;;;24.38;15.32;;;;;;;21.28;86.84;102017.25;6077301;19;20038;-73
2023/09/07 07:09:09;;;;;;;22.83;13.50;;;;;;;21.30;86.27;102018.00;6069166;19;20027;-74
2023/09/07 07:11:17;;;;;;;25.15;14.07;;;;;;;21.36;84.66;102020.25;6074999;19;20705;-75
2023/09/07 07:13:22;;;;;;;23.90;13.63;;;;;;;21.53;84.14;102007.59;6072713;19;20013;-74
2023/09/07 07:15:33;;;;;;;20.52;13.13;;;;;;;21.75;83.66;102018.53;6077402;19;20015;-74
2023/09/07 07:17:41;;;;;;;21.80;13.98;;;;;;;21.80;83.49;102013.72;6072085;19;20011;-74
2023/09/07 07:19:46;;;;;;;21.50;13.73;;;;;;;21.81;81.77;102025.28;6068520;19;20350;-74
2023/09/07 07:21:54;;;;;;;21.38;13.25;;;;;;;22.05;82.19;102025.41;6071149;19;20082;-73
2023/09/07 07:24:00;;;;;;;21.08;13.10;;;;;;;22.28;80.07;102024.66;6072427;19;20665;-74
2023/09/07 07:26:13;;;;;;;24.60;13.60;;;;;;;22.27;79.85;102012.22;6067863;19;20093;-74
2023/09/07 07:28:20;;;;;;;21.02;12.95;;;;;;;22.33;79.22;102021.66;6068513;19;20685;-73
2023/09/07 07:30:34;;;;;;;20.75;12.52;;;;;;;22.48;78.75;102011.66;6076406;19;20007;-74
2023/09/07 07:32:43;;;;;;;21.55;12.20;;;;;;;22.49;77.97;102008.88;6078133;19;20491;-75
2023/09/07 07:34:49;;;;;;;21.67;12.23;;;;;;;22.84;78.61;102016.16;6079515;19;20356;-73
2023/09/07 07:36:54;;;;;;;18.95;11.93;;;;;;;22.85;76.80;102008.94;6083979;19;20017;-74
2023/09/07 07:39:04;;;;;;;19.85;11.35;;;;;;;22.78;76.76;102004.06;6076429;19;20010;-74
2023/09/07 07:41:09;;;;;;;23.60;13.30;;;;;;;22.81;76.46;102002.13;6064675;19;20015;-74
2023/09/07 07:43:15;;;;;;;18.83;11.75;;;;;;;22.97;76.20;102002.72;6069810;19;20006;-74
2023/09/07 07:45:26;;;;;;;17.67;11.95;;;;;;;23.39;74.73;102000.47;6066304;19;20003;-73
2023/09/07 07:47:31;;;;;;;17.20;11.45;;;;;;;23.59;73.36;101997.09;6068575;19;20565;-74
2023/09/07 07:49:34;;;;;;;20.77;12.20;;;;;;;23.59;72.57;101999.78;6068676;19;20496;-74
2023/09/07 07:51:42;;;;;;;20.05;11.55;;;;;;;23.57;72.82;101995.50;6068187;19;20463;-73
2023/09/07 07:53:52;;;;;;;19.83;11.35;;;;;;;23.96;72.13;101991.56;6071360;19;20003;-71
2023/09/07 07:56:01;;;;;;;20.95;11.57;;;;;;;23.94;71.05;101993.50;6074668;19;20319;-74
2023/09/07 07:58:07;;;;;;;17.10;10.88;;;;;;;23.94;70.78;101988.16;6075301;19;20944;-72
2023/09/07 08:00:17;;;;;;;20.88;11.77;;;;;;;23.92;70.56;101987.41;6070174;19;20373;-73
2023/09/07 08:02:26;;;;;;;19.92;10.98;;;;;;;24.04;69.96;101993.63;6072566;19;20011;-72
2023/09/07 08:04:32;;;;;;;18.23;10.65;;;;;;;24.20;69.34;101986.06;6077660;19;20019;-72
2023/09/07 08:06:43;;;;;;;17.00;9.88;;;;;;;24.21;68.61;101984.22;6078810;19;20010;-73
2023/09/07 08:11:11;;;;;;;16.10;9.65;;;;;;;24.47;67.69;101991.06;6074963;19;20255;-72
2023/09/07 08:13:20;;;;;;;18.35;10.55;;;;;;;24.58;66.73;101987.50;6072152;19;20109;-72
2023/09/07 08:15:26;;;;;;;18.25;10.80;;;;;;;24.50;67.04;101987.28;6075330;19;20014;-72
2023/09/07 08:17:34;;;;;;;18.83;10.80;;;;;;;24.92;66.22;101987.41;6076773;19;20002;-73
2023/09/07 08:19:43;;;;;;;18.17;10.85;;;;;;;24.91;67.23;101985.72;6073580;19;20039;-72
2023/09/07 08:21:51;;;;;;;14.80;9.05;;;;;;;24.75;64.97;101976.22;6078630;19;20052;-72
2023/09/07 08:24:02;;;;;;;16.08;9.63;;;;;;;24.87;63.90;101979.72;6081420;19;20003;-72
2023/09/07 08:26:14;;;;;;;13.30;8.43;;;;;;;25.07;63.68;101974.53;6081000;19;20108;-73
2023/09/07 08:28:18;;;;;;;16.45;9.25;;;;;;;24.89;64.03;101980.47;6083475;19;20372;-74
2023/09/07 08:30:26;;;;;;;14.82;9.52;;;;;;;24.75;63.25;101975.38;6080156;19;20010;-74
2023/09/07 08:32:34;;;;;;;17.58;9.38;;;;;;;25.00;63.60;101974.19;6076528;19;20019;-74
2023/09/07 08:34:44;;;;;;;;;;;;;;;25.02;63.38;101976.75;6079625;19;20613;-72
2023/09/07 08:36:49;;;;;;;14.77;8.48;;;;;;;25.39;62.80;101969.97;6076617;19;20341;-73
2023/09/07 08:39:05;;;;;;;13.77;8.75;;;;;;;25.62;60.84;101969.84;6077954;19;20329;-71
2023/09/07 08:41:12;;;;;;;14.63;8.38;;;;;;;25.58;61.32;101979.16;6073116;19;20012;-72
2023/09/07 08:43:23;;;;;;;14.32;8.65;;;;;;;25.52;62.26;101979.69;6078993;19;20011;-72
2023/09/07 08:45:33;;;;;;;15.43;8.35;;;;;;;25.72;61.51;101976.13;6077428;19;20688;-72
2023/09/07 08:47:44;;;;;;;17.67;9.73;;;;;;;25.83;61.72;101977.91;6077883;19;20053;-72
2023/09/07 08:49:52;;;;;;;14.77;8.80;;;;;;;26.00;60.85;101971.91;6079727;19;20673;-73
2023/09/07 08:52:11;;;;;;;13.38;8.48;;;;;;;26.20;59.55;101959.38;6078285;19;20043;-72
2023/09/07 08:54:17;;;;;;;17.80;8.90;;;;;;;26.29;60.21;101963.06;6074792;19;20294;-72
2023/09/07 08:56:29;;;;;;;17.73;9.23;;;;;;;26.27;60.74;101971.28;6072475;19;20010;-72
2023/09/07 08:58:37;;;;;;;17.42;9.63;;;;;;;26.32;59.44;101967.31;6055183;19;20011;-72
2023/09/07 09:00:46;;;;;;;15.50;8.57;;;;;;;26.42;59.65;101960.97;6073022;19;20067;-72
2023/09/07 09:03:01;;;;;;;16.90;8.57;;;;;;;26.54;58.34;101960.88;6074936;19;20461;-72
2023/09/07 09:05:08;;;;;;;16.58;9.43;;;;;;;26.50;59.17;101961.13;6074747;19;20042;-72
2023/09/07 09:07:15;;;;;;;17.05;9.15;;;;;;;26.70;58.06;101967.44;6076534;19;20204;-72
2023/09/07 09:09:25;;;;;;;16.20;9.80;;;;;;;26.84;58.08;101958.06;6076203;19;20567;-72
2023/09/07 09:11:32;;;;;;;16.70;9.15;;;;;;;26.67;58.36;101961.47;6079956;19;20919;-72
2023/09/07 09:13:38;;;;;;;14.38;8.68;;;;;;;26.76;57.35;101957.94;6080038;19;20764;-72
2023/09/07 09:15:46;;;;;;;13.88;8.98;;;;;;;26.79;58.12;101949.56;6082884;19;20026;-72
2023/09/07 09:17:59;;;;;;;14.85;8.27;;;;;;;26.96;58.19;101956.06;6082268;19;20460;-72
2023/09/07 09:20:09;;;;;;;13.10;8.60;;;;;;;27.27;57.20;101958.66;6080839;19;20011;-71
2023/09/07 09:22:20;;;;;;;17.98;10.00;;;;;;;27.57;56.63;101953.06;6080262;19;20091;-72
2023/09/07 09:24:26;;;;;;;16.13;9.63;;;;;;;27.10;56.45;101954.81;6084455;19;20003;-72
2023/09/07 09:26:31;;;;;;;14.15;8.88;;;;;;;27.18;56.12;101956.84;6079797;19;20029;-72
2023/09/07 09:28:37;;;;;;;13.70;8.57;;;;;;;27.07;56.39;101950.56;6079739;19;20513;-72
2023/09/07 09:30:44;;;;;;;14.23;8.27;;;;;;;27.44;55.85;101948.97;6079473;19;20074;-71
2023/09/07 09:32:56;;;;;;;12.57;7.47;;;;;;;27.41;54.17;101955.53;6080982;19;20026;-70
2023/09/07 09:35:02;;;;;;;14.48;8.13;;;;;;;27.28;55.61;101955.81;6078280;19;20020;-72
2023/09/07 09:37:16;;;;;;;12.90;7.20;;;;;;;27.50;55.96;101962.72;6077125;19;20018;-72
2023/09/07 09:39:27;;;;;;;14.40;8.48;;;;;;;27.69;54.66;101963.66;6080384;19;20035;-71
2023/09/07 09:41:34;;;;;;;15.43;8.98;;;;;;;27.85;54.71;101961.22;6080598;19;20710;-73
2023/09/07 09:43:40;;;;;;;13.35;7.40;;;;;;;27.93;53.90;101964.03;6079629;19;20010;-71
2023/09/07 09:45:46;;;;;;;14.02;8.18;;;;;;;28.26;53.52;101964.47;6075420;19;20075;-72
2023/09/07 09:47:59;;;;;;;17.65;9.00;;;;;;;27.72;54.28;101961.53;6077415;19;20534;-72
2023/09/07 09:50:06;;;;;;;13.10;8.15;;;;;;;27.99;53.89;101960.75;6073010;19;20094;-72
2023/09/07 09:52:12;;;;;;;15.88;8.00;;;;;;;28.07;54.56;101957.31;6075905;19;20017;-71
2023/09/07 09:54:19;;;;;;;14.73;7.70;;;;;;;28.33;53.86;101962.88;6076565;19;20198;-71